createdAt,value
2018-07-19T00:04:06.649Z,20.38
2018-07-19T00:09:10.956Z,20.40
2018-07-19T00:14:14.479Z,20.47
2018-07-19T00:19:18.021Z,20.25
2018-07-19T00:24:21.553Z,20.04
2018-07-19T00:29:25.169Z,19.99
2018-07-19T00:34:28.682Z,19.88
2018-07-19T00:39:32.207Z,19.93
2018-07-19T00:44:35.773Z,19.61
2018-07-19T00:49:39.310Z,19.85
2018-07-19T00:54:42.953Z,19.80
2018-07-19T00:59:46.633Z,19.89
2018-07-19T01:04:50.165Z,20.00
2018-07-19T01:09:53.698Z,19.78
2018-07-19T01:14:57.224Z,19.56
2018-07-19T01:20:00.850Z,19.51
2018-07-19T01:25:04.906Z,19.63
2018-07-19T01:30:08.410Z,19.52
2018-07-19T01:35:11.953Z,19.06
2018-07-19T01:40:15.525Z,18.82
2018-07-19T01:45:19.028Z,18.96
2018-07-19T01:50:22.521Z,19.33
2018-07-19T01:55:26.094Z,19.01
2018-07-19T02:00:29.671Z,18.61
2018-07-19T02:05:33.191Z,18.65
2018-07-19T02:10:36.785Z,18.42
2018-07-19T02:15:40.378Z,18.51
2018-07-19T02:20:43.957Z,17.76
2018-07-19T02:25:47.477Z,17.87
2018-07-19T02:30:51.002Z,17.73
2018-07-19T02:35:54.530Z,17.29
2018-07-19T02:40:58.018Z,17.71
2018-07-19T02:46:01.529Z,17.32
2018-07-19T02:51:05.120Z,17.40
2018-07-19T02:56:08.827Z,17.66
2018-07-19T03:01:12.446Z,17.47
2018-07-19T03:06:16.050Z,17.28
2018-07-19T03:11:19.568Z,17.23
2018-07-19T03:16:23.142Z,17.50
2018-07-19T03:21:26.710Z,17.47
2018-07-19T03:26:30.201Z,16.83
2018-07-19T03:31:33.788Z,17.25
2018-07-19T03:36:37.437Z,17.06
2018-07-19T03:41:41.033Z,16.56
2018-07-19T03:46:44.541Z,16.83
2018-07-19T03:51:48.085Z,17.05
2018-07-19T03:56:51.713Z,17.16
2018-07-19T04:01:55.288Z,17.19
2018-07-19T04:06:58.791Z,17.24
2018-07-19T04:12:02.513Z,16.98
2018-07-19T04:17:06.133Z,17.02
2018-07-19T04:22:09.847Z,17.14
2018-07-19T04:27:13.526Z,16.86
2018-07-19T04:32:17.068Z,16.64
2018-07-19T04:37:20.618Z,16.82
2018-07-19T04:42:24.868Z,16.91
2018-07-19T04:47:28.386Z,17.33
2018-07-19T04:52:32.026Z,17.21
2018-07-19T04:57:35.580Z,17.32
2018-07-19T05:02:39.160Z,17.19
2018-07-19T05:07:42.797Z,17.43
2018-07-19T05:12:46.301Z,17.45
2018-07-19T05:17:49.862Z,17.36
2018-07-19T05:22:53.474Z,17.45
2018-07-19T05:27:57.050Z,17.56
2018-07-19T05:33:00.541Z,17.78
2018-07-19T05:38:04.074Z,17.79
2018-07-19T05:43:07.789Z,17.91
2018-07-19T05:48:11.937Z,17.92
2018-07-19T05:53:15.627Z,17.95
2018-07-19T05:58:19.403Z,17.96
2018-07-19T06:03:22.997Z,18.25
2018-07-19T06:08:26.621Z,18.27
2018-07-19T06:13:30.269Z,18.38
2018-07-19T06:18:33.938Z,18.41
2018-07-19T06:23:39.859Z,18.65
2018-07-19T06:28:43.938Z,18.75
2018-07-19T06:33:47.689Z,18.86
2018-07-19T06:38:51.286Z,18.89
2018-07-19T06:43:57.160Z,18.92
2018-07-19T06:49:01.127Z,19.19
2018-07-19T06:54:05.460Z,19.13
2018-07-19T06:59:10.143Z,19.35
2018-07-19T07:04:16.349Z,19.52
2018-07-19T07:09:22.704Z,19.60
2018-07-19T07:14:26.447Z,19.58
2018-07-19T07:19:30.192Z,19.61
2018-07-19T07:24:34.024Z,19.71
2018-07-19T07:29:37.606Z,19.91
2018-07-19T07:34:41.225Z,19.89
2018-07-19T07:39:45.679Z,20.06
2018-07-19T07:44:49.576Z,20.26
2018-07-19T07:49:53.202Z,20.28
2018-07-19T07:54:58.023Z,20.36
2018-07-19T08:00:12.371Z,20.60
2018-07-19T08:05:16.190Z,20.54
2018-07-19T08:10:19.877Z,20.87
2018-07-19T08:15:23.574Z,20.82
2018-07-19T08:20:27.189Z,20.89
2018-07-19T08:25:30.873Z,20.98
2018-07-19T08:30:34.811Z,21.22
2018-07-19T08:35:38.510Z,21.34
2018-07-19T08:40:42.050Z,21.44
2018-07-19T08:45:45.858Z,21.58
2018-07-19T08:50:49.794Z,21.71
2018-07-19T08:55:54.521Z,21.72
2018-07-19T09:11:56.254Z,22.13
2018-07-19T09:17:02.959Z,22.32
2018-07-19T09:22:08.563Z,22.70
2018-07-19T09:27:15.988Z,22.74
2018-07-19T09:32:26.179Z,22.66
2018-07-19T09:37:30.294Z,22.75
2018-07-19T09:42:34.880Z,22.47
2018-07-19T09:47:40.052Z,23.18
2018-07-19T09:52:44.356Z,22.96
2018-07-19T09:57:48.352Z,23.08
2018-07-19T10:02:52.292Z,23.25
2018-07-19T10:07:57.456Z,23.51
2018-07-19T10:13:01.927Z,23.33
2018-07-19T10:18:05.743Z,23.66
2018-07-19T10:23:10.650Z,23.76
2018-07-19T10:28:14.589Z,23.35
2018-07-19T10:33:18.466Z,23.61
2018-07-19T10:38:23.277Z,24.10
2018-07-19T10:43:27.099Z,23.99
2018-07-19T10:48:31.160Z,24.01
2018-07-19T10:53:35.055Z,24.29
2018-07-19T10:58:38.986Z,24.05
2018-07-19T11:03:48.965Z,24.03
2018-07-19T11:08:54.162Z,24.31
2018-07-19T11:13:58.422Z,24.79
2018-07-19T11:19:02.722Z,24.92
2018-07-19T11:24:07.903Z,25.08
2018-07-19T11:29:12.374Z,24.65
2018-07-19T11:34:17.414Z,25.12
2018-07-19T11:39:21.472Z,25.58
2018-07-19T11:44:25.482Z,25.10
2018-07-19T11:49:29.372Z,25.41
2018-07-19T11:54:33.495Z,25.94
2018-07-19T11:59:37.497Z,26.07
2018-07-19T12:04:41.668Z,25.65
2018-07-19T12:09:45.681Z,26.43
2018-07-19T12:14:49.485Z,26.96
2018-07-19T12:19:53.438Z,27.53
2018-07-19T12:24:57.339Z,27.55
2018-07-19T12:35:09.983Z,27.43
2018-07-19T12:40:14.292Z,28.07
2018-07-19T12:45:18.271Z,27.36
2018-07-19T12:50:22.303Z,27.31
2018-07-19T12:55:26.392Z,27.27
2018-07-19T13:00:30.441Z,27.14
2018-07-19T13:05:34.330Z,27.12
2018-07-19T13:10:38.170Z,27.72
2018-07-19T13:15:42.015Z,27.68
2018-07-19T13:20:46.181Z,27.67
2018-07-19T13:25:50.160Z,27.80
2018-07-19T13:30:53.977Z,27.55
2018-07-19T13:35:57.887Z,27.95
2018-07-19T13:41:01.710Z,28.08
2018-07-19T13:46:05.667Z,27.40
2018-07-19T13:51:09.853Z,27.53
2018-07-19T13:56:14.403Z,27.44
2018-07-19T14:01:18.306Z,27.88
2018-07-19T14:06:22.357Z,28.11
2018-07-19T14:11:26.399Z,28.16
2018-07-19T14:16:31.065Z,28.16
2018-07-19T14:21:34.867Z,28.10
2018-07-19T14:26:39.843Z,28.02
2018-07-19T14:31:43.807Z,28.15
2018-07-19T14:36:47.838Z,28.30
2018-07-19T14:41:51.899Z,28.45
2018-07-19T14:46:56.096Z,28.61
2018-07-19T14:52:00.313Z,28.59
2018-07-19T14:57:04.446Z,28.95
2018-07-19T15:02:09.801Z,29.42
2018-07-19T15:07:14.197Z,29.99
2018-07-19T15:12:19.530Z,30.17
2018-07-19T15:17:23.652Z,30.46
2018-07-19T15:22:29.703Z,30.46
2018-07-19T15:27:33.695Z,30.63
2018-07-19T15:32:38.881Z,30.53
2018-07-19T15:37:46.672Z,31.06
2018-07-19T15:42:50.883Z,30.93
2018-07-19T15:47:55.810Z,31.05
2018-07-19T15:53:00.677Z,31.47
2018-07-19T15:58:04.773Z,31.97
2018-07-19T16:03:08.629Z,32.94
2018-07-19T16:08:12.655Z,33.63
2018-07-19T16:13:18.559Z,34.72
2018-07-19T16:18:22.629Z,36.92
2018-07-19T16:23:26.723Z,38.41
2018-07-19T16:28:30.590Z,34.97
2018-07-19T16:33:34.577Z,34.26
2018-07-19T16:38:38.455Z,33.00
2018-07-19T16:43:42.445Z,31.30
2018-07-19T16:48:46.386Z,30.83
2018-07-19T16:53:50.582Z,30.35
2018-07-19T16:58:54.635Z,30.32
2018-07-19T17:03:58.565Z,29.74
2018-07-19T17:09:02.370Z,30.45
2018-07-19T17:14:06.366Z,30.71
2018-07-19T17:19:10.467Z,30.43
2018-07-19T17:24:14.463Z,30.43
2018-07-19T17:29:19.244Z,30.40
2018-07-19T17:34:23.204Z,30.75
2018-07-19T17:39:27.340Z,29.33
2018-07-19T17:44:31.353Z,30.80
2018-07-19T17:49:35.375Z,31.90
2018-07-19T17:54:39.407Z,32.12
2018-07-19T17:59:43.394Z,31.66
2018-07-19T18:04:47.180Z,30.33
2018-07-19T18:09:50.975Z,31.28
2018-07-19T18:14:54.969Z,30.36
2018-07-19T18:19:58.985Z,29.90
2018-07-19T18:25:08.132Z,30.04
2018-07-19T18:30:12.002Z,29.54
2018-07-19T18:35:16.819Z,29.36
2018-07-19T18:40:20.668Z,28.66
2018-07-19T18:45:24.555Z,28.25
2018-07-19T18:50:28.369Z,28.08
2018-07-19T18:55:32.504Z,27.64
2018-07-19T19:00:36.436Z,27.28
2018-07-19T19:05:40.411Z,26.80
2018-07-19T19:10:45.042Z,26.38
2018-07-19T19:15:49.671Z,25.98
2018-07-19T19:20:53.809Z,25.71
2018-07-19T19:25:57.790Z,25.64
2018-07-19T19:31:02.340Z,25.54
2018-07-19T19:36:06.227Z,25.52
2018-07-19T19:41:10.122Z,24.89
2018-07-19T19:46:14.006Z,24.92
2018-07-19T19:51:17.903Z,24.95
2018-07-19T19:56:21.794Z,24.79
2018-07-19T20:01:25.789Z,24.62
2018-07-19T20:06:29.687Z,24.72
2018-07-19T20:11:33.634Z,24.48
2018-07-19T20:16:37.219Z,24.31
2018-07-19T20:21:40.822Z,24.53
2018-07-19T20:26:44.702Z,24.50
2018-07-19T20:31:48.546Z,24.27
2018-07-19T20:36:52.133Z,24.32
2018-07-19T20:41:55.971Z,24.15
2018-07-19T20:46:59.734Z,24.07
2018-07-19T20:52:03.319Z,23.92
2018-07-19T20:57:06.863Z,23.57
2018-07-19T21:02:10.600Z,23.28
2018-07-19T21:07:14.501Z,23.41
2018-07-19T21:12:18.503Z,23.38
2018-07-19T21:17:22.166Z,22.96
2018-07-19T21:22:25.725Z,23.15
2018-07-19T21:27:29.693Z,23.01
2018-07-19T21:32:33.258Z,22.91
2018-07-19T21:37:36.810Z,22.77
2018-07-19T21:42:40.770Z,22.52
2018-07-19T21:47:44.597Z,22.71
2018-07-19T21:52:48.085Z,22.50
2018-07-19T21:57:52.137Z,22.41
2018-07-19T22:02:56.219Z,22.27
2018-07-19T22:08:00.086Z,22.22
2018-07-19T22:13:03.886Z,22.37
2018-07-19T22:18:07.397Z,22.33
2018-07-19T22:23:11.469Z,22.13
2018-07-19T22:28:14.974Z,21.98
2018-07-19T22:33:18.543Z,21.87
2018-07-19T22:38:22.579Z,21.63
2018-07-19T22:43:26.287Z,21.68
2018-07-19T22:48:30.013Z,21.67
2018-07-19T22:53:34.200Z,21.75
2018-07-19T22:58:38.064Z,21.61
2018-07-19T23:03:41.802Z,21.63
2018-07-19T23:08:45.955Z,21.48
2018-07-19T23:13:50.041Z,21.33
2018-07-19T23:18:53.850Z,20.97
2018-07-19T23:23:57.769Z,21.12
2018-07-19T23:29:01.433Z,21.04
2018-07-19T23:34:05.074Z,21.24
2018-07-19T23:39:44.039Z,21.19
2018-07-19T23:45:50.160Z,20.93
2018-07-19T23:50:53.725Z,20.84
2018-07-19T23:55:57.375Z,20.63
